createdAt,value
2022-10-01T00:06:41.992Z,9.56
2022-10-01T00:15:13.348Z,9.57
2022-10-01T00:23:37.727Z,9.58
2022-10-01T00:32:02.148Z,9.61
2022-10-01T00:40:25.157Z,9.63
2022-10-01T00:48:52.670Z,9.62
2022-10-01T00:57:18.967Z,9.67
2022-10-01T01:05:42.218Z,9.69
2022-10-01T01:14:18.969Z,9.69
2022-10-01T01:22:50.588Z,9.68
2022-10-01T01:31:18.779Z,9.62
2022-10-01T01:39:46.250Z,9.61
2022-10-01T01:48:13.042Z,9.59
2022-10-01T01:56:38.302Z,9.54
2022-10-01T02:05:09.003Z,9.52
2022-10-01T02:13:45.318Z,9.57
2022-10-01T02:22:47.324Z,9.60
2022-10-01T02:31:13.202Z,9.54
2022-10-01T02:39:38.488Z,9.52
2022-10-01T02:48:08.924Z,9.56
2022-10-01T02:56:54.299Z,9.60
2022-10-01T03:05:20.475Z,9.62
2022-10-01T03:13:43.785Z,9.63
2022-10-01T03:22:08.512Z,9.57
2022-10-01T03:30:31.360Z,9.51
2022-10-01T03:38:54.209Z,9.54
2022-10-01T03:47:17.191Z,9.57
2022-10-01T03:55:39.957Z,9.60
2022-10-01T04:04:04.189Z,9.57
2022-10-01T04:12:27.409Z,9.50
2022-10-01T04:20:50.256Z,9.50
2022-10-01T04:29:13.199Z,9.55
2022-10-01T04:37:36.014Z,9.58
2022-10-01T04:45:58.977Z,9.48
2022-10-01T04:54:21.872Z,9.33
2022-10-01T05:02:52.007Z,9.25
2022-10-01T05:11:14.735Z,9.21
2022-10-01T05:19:37.496Z,9.25
2022-10-01T05:28:05.325Z,9.24
2022-10-01T05:36:29.735Z,9.22
2022-10-01T05:44:53.542Z,9.29
2022-10-01T05:53:16.307Z,9.34
2022-10-01T06:01:39.292Z,9.42
2022-10-01T06:10:02.144Z,9.50
2022-10-01T06:18:24.924Z,9.54
2022-10-01T06:26:48.626Z,9.58
2022-10-01T06:35:11.423Z,9.64
2022-10-01T06:43:34.278Z,9.63
2022-10-01T06:52:15.845Z,9.67
2022-10-01T07:00:40.861Z,9.78
2022-10-01T07:09:07.228Z,9.82
2022-10-01T07:17:30.076Z,9.84
2022-10-01T07:25:52.909Z,9.96
2022-10-01T07:34:16.046Z,10.02
2022-10-01T07:42:38.820Z,9.95
2022-10-01T07:51:01.653Z,9.95
2022-10-01T07:59:27.194Z,9.96
2022-10-01T08:07:50.790Z,10.05
2022-10-01T08:16:13.982Z,10.10
2022-10-01T08:24:36.939Z,10.08
2022-10-01T08:33:01.646Z,10.23
2022-10-01T08:41:40.985Z,10.47
2022-10-01T08:50:17.011Z,10.71
2022-10-01T08:58:45.511Z,10.89
2022-10-01T09:07:57.388Z,10.98
2022-10-01T09:16:41.150Z,11.00
2022-10-01T09:25:25.217Z,11.01
2022-10-01T09:34:12.740Z,11.09
2022-10-01T09:42:35.580Z,11.17
2022-10-01T09:51:03.740Z,11.22
2022-10-01T09:59:49.664Z,11.28
2022-10-01T10:08:24.116Z,11.47
2022-10-01T10:16:48.854Z,11.59
2022-10-01T10:25:20.019Z,11.63
2022-10-01T10:33:47.413Z,11.65
2022-10-01T10:42:15.349Z,11.75
2022-10-01T10:50:41.186Z,11.92
2022-10-01T10:59:08.467Z,12.04
2022-10-01T11:07:32.200Z,12.13
2022-10-01T11:16:20.520Z,12.19
2022-10-01T11:24:51.661Z,12.28
2022-10-01T11:33:30.527Z,12.35
2022-10-01T11:42:00.585Z,12.46
2022-10-01T11:50:38.506Z,12.39
2022-10-01T11:59:13.940Z,12.19
2022-10-01T12:07:54.256Z,12.18
2022-10-01T12:16:54.222Z,12.28
2022-10-01T12:25:18.948Z,12.41
2022-10-01T12:33:51.218Z,12.58
2022-10-01T12:42:20.028Z,12.76
2022-10-01T12:50:53.055Z,12.90
2022-10-01T12:59:35.040Z,12.85
2022-10-01T13:08:33.657Z,12.80
2022-10-01T13:17:06.371Z,12.85
2022-10-01T13:25:40.354Z,12.85
2022-10-01T13:34:03.683Z,12.90
2022-10-01T13:43:23.384Z,12.86
2022-10-01T13:51:46.709Z,12.85
2022-10-01T14:00:12.484Z,12.92
2022-10-01T14:08:44.118Z,12.96
2022-10-01T14:17:09.630Z,12.79
2022-10-01T14:25:39.597Z,12.63
2022-10-01T14:34:36.961Z,12.48
2022-10-01T14:43:01.712Z,12.30
2022-10-01T14:51:28.055Z,12.23
2022-10-01T14:59:50.999Z,12.18
2022-10-01T15:08:21.481Z,12.19
2022-10-01T15:16:44.879Z,12.17
2022-10-01T15:25:11.023Z,12.19
2022-10-01T15:33:42.548Z,12.22
2022-10-01T15:42:31.554Z,12.19
2022-10-01T15:51:04.621Z,12.12
2022-10-01T15:59:27.653Z,12.01
2022-10-01T16:07:58.314Z,11.93
2022-10-01T16:16:22.883Z,11.81
2022-10-01T16:24:48.351Z,11.71
2022-10-01T16:33:11.208Z,11.68
2022-10-01T16:41:35.269Z,11.76
2022-10-01T16:49:58.331Z,11.80
2022-10-01T16:58:21.871Z,11.78
2022-10-01T17:29:01.315Z,11.75
2022-10-01T17:37:24.608Z,11.54
2022-10-01T17:45:59.634Z,11.46
2022-10-01T17:54:23.478Z,11.39
2022-10-01T18:02:46.737Z,11.29
2022-10-01T18:11:12.206Z,11.18
2022-10-01T18:28:17.888Z,11.13
2022-10-01T18:37:04.247Z,11.17
2022-10-01T18:45:41.712Z,11.23
2022-10-01T18:54:18.714Z,11.22
2022-10-01T19:02:53.439Z,11.28
2022-10-01T19:11:31.510Z,11.39
2022-10-01T19:20:12.223Z,11.37
2022-10-01T19:29:01.008Z,11.33
2022-10-01T19:37:41.601Z,11.25
2022-10-01T19:46:16.699Z,11.21
2022-10-01T19:54:52.599Z,11.27
2022-10-01T20:03:40.600Z,11.24
2022-10-01T20:12:21.896Z,11.22
2022-10-01T20:21:14.231Z,11.13
2022-10-01T20:29:59.161Z,11.01
2022-10-01T20:38:42.375Z,10.97
2022-10-01T20:47:12.674Z,10.90
2022-10-01T20:55:41.424Z,10.84
2022-10-01T21:04:18.568Z,10.81
2022-10-01T21:12:53.164Z,10.76
2022-10-01T21:21:35.416Z,10.75
2022-10-01T21:30:07.587Z,10.61
2022-10-01T21:38:40.480Z,10.59
2022-10-01T21:47:15.446Z,10.57
2022-10-01T21:56:00.337Z,10.52
2022-10-01T22:04:39.902Z,10.57
2022-10-01T22:13:15.442Z,10.60
2022-10-01T22:21:46.136Z,10.62
2022-10-01T22:30:16.755Z,10.69
2022-10-01T22:39:13.604Z,10.70
2022-10-01T22:47:58.682Z,10.61
2022-10-01T22:56:41.974Z,10.48
2022-10-01T23:05:43.943Z,10.32
2022-10-01T23:14:44.653Z,10.21
2022-10-01T23:23:23.961Z,10.18
2022-10-01T23:31:52.844Z,10.08
2022-10-01T23:40:21.816Z,9.98
2022-10-01T23:48:54.835Z,9.89
2022-10-01T23:57:32.220Z,9.82
